aviador You're here:

YCIN Decoded Metar

CURTIN/DERBY in _UNIDENTIFIED
Report Time2017-06-24 17:00:00
UTC Time2017-06-24 17:22:00
Flight Rules vfr VFR
Wind220° at 04 kt
W.Decomp.*RWY 29: 1.2 kt HW 3.8 kt LCW
W.Rank220° ranks 28
Current wind is below 220° avg. (5.3)
Visibility9999 m
Phenomena:N/A
Clouds:N/A
Expected CloudBase > 2,800 ft AGL from Temp-Dew spread
CeilingNone
Temp20°C (ISA +6)
Dew Point13°C (64% RH)
AAT19.5°C
QNH1011 hPa
Density Alt1,224 ft
Elevation299 ft
Report Wrong Elevation
Raw Report
YCIN 241700Z AUTO 22004KT 9999 // NCD 20/13 Q1011=

Extra information for YCIN:More info

Metar Taf Metar & Taf Last 4 Metars F.Rules Stats Wind Profile Meteogram Temp Stats Airport Information Weather charts Add Link Nearby VenuesMetar ALERT Operation Metar Decoded Social comments